Detroit, Michigan
Traffic Map
Current Weather Conditions
Detroit, Michigan
Broken Clouds Haze
Broken Clouds

Feels Like: 7°
Wind Chill: Ceiling: 9500
Heat Index: Visibility: 6mi
Dew Point: Wind: 7mph
Humidity: 100% Direction: 210° (SSW)
Pressure: 29.86in Gusts: 0mph
Raw Report DataCYQG 251000Z 21006KT 6SM BR BKN095 BKN250 09/09 A2986 RMK AC5CI1 SLP113
Traffic Incident Summary
Active as of:
Severity:
Category:
InformationThere was an issue retrieving the traffic information for this location. Please try a different location or try again shortly.
Advertisements
Track Severe Weather on mobile